sensor_id;sensor_type;location;lat;lon;timestamp;P1;durP1;ratioP1;P2;durP2;ratioP2
56429;SDS011;42332;52.136;20.666;2023-03-01T00:01:49;48.03;;;18.52;;
56429;SDS011;42332;52.136;20.666;2023-03-01T00:04:15;50.33;;;15.52;;
56429;SDS011;42332;52.136;20.666;2023-03-01T00:06:42;49.67;;;17.55;;
56429;SDS011;42332;52.136;20.666;2023-03-01T00:09:10;41.80;;;17.95;;
56429;SDS011;42332;52.136;20.666;2023-03-01T00:11:36;35.05;;;15.90;;
56429;SDS011;42332;52.136;20.666;2023-03-01T00:14:02;45.47;;;18.45;;
56429;SDS011;42332;52.136;20.666;2023-03-01T00:16:31;46.05;;;18.33;;
56429;SDS011;42332;52.136;20.666;2023-03-01T00:19:01;25.10;;;12.30;;
56429;SDS011;42332;52.136;20.666;2023-03-01T00:21:27;49.25;;;19.00;;
56429;SDS011;42332;52.136;20.666;2023-03-01T00:23:53;34.05;;;16.52;;
56429;SDS011;42332;52.136;20.666;2023-03-01T00:26:19;28.10;;;12.05;;
56429;SDS011;42332;52.136;20.666;2023-03-01T00:28:46;47.03;;;17.20;;
56429;SDS011;42332;52.136;20.666;2023-03-01T00:31:15;45.17;;;20.40;;
56429;SDS011;42332;52.136;20.666;2023-03-01T00:33:42;34.60;;;15.88;;
56429;SDS011;42332;52.136;20.666;2023-03-01T00:36:08;28.92;;;16.33;;
56429;SDS011;42332;52.136;20.666;2023-03-01T00:38:35;36.47;;;13.85;;
56429;SDS011;42332;52.136;20.666;2023-03-01T00:41:04;47.03;;;18.50;;
56429;SDS011;42332;52.136;20.666;2023-03-01T00:43:31;46.10;;;18.92;;
56429;SDS011;42332;52.136;20.666;2023-03-01T00:46:01;33.95;;;16.42;;
56429;SDS011;42332;52.136;20.666;2023-03-01T00:48:28;35.00;;;16.80;;
56429;SDS011;42332;52.136;20.666;2023-03-01T00:50:53;42.85;;;19.67;;
56429;SDS011;42332;52.136;20.666;2023-03-01T00:53:18;30.25;;;11.48;;
56429;SDS011;42332;52.136;20.666;2023-03-01T00:55:43;53.92;;;19.50;;
56429;SDS011;42332;52.136;20.666;2023-03-01T00:58:09;58.67;;;21.50;;
56429;SDS011;42332;52.136;20.666;2023-03-01T01:00:34;48.95;;;17.83;;
56429;SDS011;42332;52.136;20.666;2023-03-01T01:02:59;45.95;;;19.63;;
56429;SDS011;42332;52.136;20.666;2023-03-01T01:05:25;53.05;;;20.77;;
56429;SDS011;42332;52.136;20.666;2023-03-01T01:07:50;33.10;;;17.45;;
56429;SDS011;42332;52.136;20.666;2023-03-01T01:10:15;45.55;;;17.17;;
56429;SDS011;42332;52.136;20.666;2023-03-01T01:12:45;48.20;;;16.35;;
56429;SDS011;42332;52.136;20.666;2023-03-01T01:15:11;30.92;;;14.50;;
56429;SDS011;42332;52.136;20.666;2023-03-01T01:17:39;34.85;;;15.10;;
56429;SDS011;42332;52.136;20.666;2023-03-01T01:20:04;58.33;;;15.75;;
56429;SDS011;42332;52.136;20.666;2023-03-01T01:22:30;25.35;;;11.60;;
56429;SDS011;42332;52.136;20.666;2023-03-01T01:24:55;31.75;;;13.55;;
56429;SDS011;42332;52.136;20.666;2023-03-01T01:27:21;31.73;;;15.55;;
56429;SDS011;42332;52.136;20.666;2023-03-01T01:29:46;33.00;;;14.18;;
56429;SDS011;42332;52.136;20.666;2023-03-01T01:32:11;41.60;;;15.85;;
56429;SDS011;42332;52.136;20.666;2023-03-01T01:34:37;44.50;;;19.08;;
56429;SDS011;42332;52.136;20.666;2023-03-01T01:37:02;37.25;;;12.63;;
56429;SDS011;42332;52.136;20.666;2023-03-01T01:39:28;36.95;;;17.65;;
56429;SDS011;42332;52.136;20.666;2023-03-01T01:41:53;45.50;;;14.75;;
56429;SDS011;42332;52.136;20.666;2023-03-01T01:44:23;28.85;;;12.85;;
56429;SDS011;42332;52.136;20.666;2023-03-01T01:46:52;37.50;;;17.67;;
56429;SDS011;42332;52.136;20.666;2023-03-01T01:49:23;39.90;;;16.90;;
56429;SDS011;42332;52.136;20.666;2023-03-01T01:54:37;40.35;;;16.25;;
56429;SDS011;42332;52.136;20.666;2023-03-01T01:57:17;33.83;;;14.45;;
56429;SDS011;42332;52.136;20.666;2023-03-01T01:59:45;43.58;;;18.25;;
56429;SDS011;42332;52.136;20.666;2023-03-01T02:02:15;16.52;;;7.80;;
56429;SDS011;42332;52.136;20.666;2023-03-01T02:04:40;37.40;;;15.98;;
56429;SDS011;42332;52.136;20.666;2023-03-01T02:07:17;51.47;;;18.48;;
56429;SDS011;42332;52.136;20.666;2023-03-01T02:09:45;43.45;;;19.15;;
56429;SDS011;42332;52.136;20.666;2023-03-01T02:12:13;34.05;;;15.70;;
56429;SDS011;42332;52.136;20.666;2023-03-01T02:14:42;34.08;;;15.85;;
56429;SDS011;42332;52.136;20.666;2023-03-01T02:17:08;51.92;;;17.48;;
56429;SDS011;42332;52.136;20.666;2023-03-01T02:22:27;57.00;;;19.75;;
56429;SDS011;42332;52.136;20.666;2023-03-01T02:30:33;37.40;;;16.10;;
56429;SDS011;42332;52.136;20.666;2023-03-01T02:32:58;23.73;;;11.07;;
56429;SDS011;42332;52.136;20.666;2023-03-01T02:35:27;30.58;;;12.32;;
56429;SDS011;42332;52.136;20.666;2023-03-01T02:37:54;41.97;;;14.73;;
56429;SDS011;42332;52.136;20.666;2023-03-01T02:40:21;42.13;;;17.40;;
56429;SDS011;42332;52.136;20.666;2023-03-01T02:42:49;36.08;;;15.52;;
56429;SDS011;42332;52.136;20.666;2023-03-01T02:45:22;41.15;;;16.70;;
56429;SDS011;42332;52.136;20.666;2023-03-01T02:47:48;26.50;;;11.98;;
56429;SDS011;42332;52.136;20.666;2023-03-01T02:55:49;30.35;;;13.10;;
56429;SDS011;42332;52.136;20.666;2023-03-01T02:58:15;45.83;;;20.60;;
56429;SDS011;42332;52.136;20.666;2023-03-01T03:00:40;44.92;;;17.02;;
56429;SDS011;42332;52.136;20.666;2023-03-01T03:03:15;38.92;;;17.70;;
56429;SDS011;42332;52.136;20.666;2023-03-01T03:05:42;22.30;;;11.65;;
56429;SDS011;42332;52.136;20.666;2023-03-01T03:08:08;54.13;;;20.80;;
56429;SDS011;42332;52.136;20.666;2023-03-01T03:10:35;38.10;;;16.60;;
56429;SDS011;42332;52.136;20.666;2023-03-01T03:13:07;29.00;;;12.75;;
56429;SDS011;42332;52.136;20.666;2023-03-01T03:15:34;37.60;;;17.42;;
56429;SDS011;42332;52.136;20.666;2023-03-01T03:18:00;47.78;;;18.48;;
56429;SDS011;42332;52.136;20.666;2023-03-01T03:20:28;36.85;;;18.52;;
56429;SDS011;42332;52.136;20.666;2023-03-01T03:22:54;41.00;;;16.90;;
56429;SDS011;42332;52.136;20.666;2023-03-01T03:25:21;44.03;;;17.45;;
56429;SDS011;42332;52.136;20.666;2023-03-01T03:27:47;51.50;;;21.40;;
56429;SDS011;42332;52.136;20.666;2023-03-01T03:30:18;24.95;;;13.85;;
56429;SDS011;42332;52.136;20.666;2023-03-01T03:32:45;44.70;;;18.20;;
56429;SDS011;42332;52.136;20.666;2023-03-01T03:35:17;42.25;;;18.08;;
56429;SDS011;42332;52.136;20.666;2023-03-01T03:37:43;32.72;;;15.95;;
56429;SDS011;42332;52.136;20.666;2023-03-01T03:40:28;44.83;;;17.38;;
56429;SDS011;42332;52.136;20.666;2023-03-01T03:43:00;36.95;;;13.18;;
56429;SDS011;42332;52.136;20.666;2023-03-01T03:45:25;40.05;;;16.63;;
56429;SDS011;42332;52.136;20.666;2023-03-01T03:47:51;31.83;;;14.80;;
56429;SDS011;42332;52.136;20.666;2023-03-01T03:50:16;34.08;;;13.43;;
56429;SDS011;42332;52.136;20.666;2023-03-01T03:52:42;40.47;;;17.95;;
56429;SDS011;42332;52.136;20.666;2023-03-01T03:55:08;35.00;;;16.95;;
56429;SDS011;42332;52.136;20.666;2023-03-01T03:57:38;41.38;;;17.48;;
56429;SDS011;42332;52.136;20.666;2023-03-01T04:00:07;32.58;;;12.65;;
56429;SDS011;42332;52.136;20.666;2023-03-01T04:02:40;43.53;;;18.33;;
56429;SDS011;42332;52.136;20.666;2023-03-01T04:05:09;40.50;;;15.90;;
56429;SDS011;42332;52.136;20.666;2023-03-01T04:07:36;19.67;;;11.88;;
56429;SDS011;42332;52.136;20.666;2023-03-01T04:10:03;25.58;;;12.48;;
56429;SDS011;42332;52.136;20.666;2023-03-01T04:12:29;24.35;;;13.05;;
56429;SDS011;42332;52.136;20.666;2023-03-01T04:14:54;34.78;;;17.15;;
56429;SDS011;42332;52.136;20.666;2023-03-01T04:17:19;26.50;;;11.10;;
56429;SDS011;42332;52.136;20.666;2023-03-01T04:19:45;26.25;;;13.43;;
56429;SDS011;42332;52.136;20.666;2023-03-01T04:22:13;35.03;;;12.82;;
56429;SDS011;42332;52.136;20.666;2023-03-01T04:24:43;48.08;;;16.90;;
56429;SDS011;42332;52.136;20.666;2023-03-01T04:27:09;34.35;;;17.98;;
56429;SDS011;42332;52.136;20.666;2023-03-01T04:29:34;34.70;;;15.02;;
56429;SDS011;42332;52.136;20.666;2023-03-01T04:32:00;42.00;;;16.42;;
56429;SDS011;42332;52.136;20.666;2023-03-01T04:34:25;29.83;;;13.27;;
56429;SDS011;42332;52.136;20.666;2023-03-01T04:36:52;38.75;;;17.40;;
56429;SDS011;42332;52.136;20.666;2023-03-01T04:39:18;24.33;;;10.82;;
56429;SDS011;42332;52.136;20.666;2023-03-01T04:41:43;32.60;;;14.70;;
56429;SDS011;42332;52.136;20.666;2023-03-01T04:44:08;23.48;;;11.20;;
56429;SDS011;42332;52.136;20.666;2023-03-01T04:46:34;20.85;;;10.77;;
56429;SDS011;42332;52.136;20.666;2023-03-01T04:49:00;22.00;;;8.13;;
56429;SDS011;42332;52.136;20.666;2023-03-01T04:51:25;30.38;;;12.02;;
56429;SDS011;42332;52.136;20.666;2023-03-01T04:53:50;33.22;;;14.43;;
56429;SDS011;42332;52.136;20.666;2023-03-01T04:56:16;29.88;;;14.48;;
56429;SDS011;42332;52.136;20.666;2023-03-01T04:58:45;37.58;;;15.80;;
56429;SDS011;42332;52.136;20.666;2023-03-01T05:01:11;34.78;;;16.13;;
56429;SDS011;42332;52.136;20.666;2023-03-01T05:03:45;34.63;;;15.32;;
56429;SDS011;42332;52.136;20.666;2023-03-01T05:06:11;28.10;;;13.38;;
56429;SDS011;42332;52.136;20.666;2023-03-01T05:08:37;26.85;;;11.63;;
56429;SDS011;42332;52.136;20.666;2023-03-01T05:11:04;29.17;;;12.68;;
56429;SDS011;42332;52.136;20.666;2023-03-01T05:13:30;44.03;;;15.65;;
56429;SDS011;42332;52.136;20.666;2023-03-01T05:15:56;25.20;;;10.77;;
56429;SDS011;42332;52.136;20.666;2023-03-01T05:18:24;33.88;;;13.43;;
56429;SDS011;42332;52.136;20.666;2023-03-01T05:20:53;44.50;;;12.38;;
56429;SDS011;42332;52.136;20.666;2023-03-01T05:23:21;20.42;;;9.75;;
56429;SDS011;42332;52.136;20.666;2023-03-01T05:25:47;37.22;;;17.42;;
56429;SDS011;42332;52.136;20.666;2023-03-01T05:28:12;23.75;;;11.60;;
56429;SDS011;42332;52.136;20.666;2023-03-01T05:30:38;23.77;;;11.40;;
56429;SDS011;42332;52.136;20.666;2023-03-01T05:33:04;20.30;;;10.50;;
56429;SDS011;42332;52.136;20.666;2023-03-01T05:35:32;41.15;;;14.88;;
56429;SDS011;42332;52.136;20.666;2023-03-01T05:37:58;32.78;;;15.18;;
56429;SDS011;42332;52.136;20.666;2023-03-01T05:40:23;35.13;;;15.88;;
56429;SDS011;42332;52.136;20.666;2023-03-01T05:42:55;27.92;;;13.00;;
56429;SDS011;42332;52.136;20.666;2023-03-01T05:45:22;36.90;;;16.52;;
56429;SDS011;42332;52.136;20.666;2023-03-01T05:47:49;34.65;;;15.50;;
56429;SDS011;42332;52.136;20.666;2023-03-01T05:50:22;32.47;;;13.65;;
56429;SDS011;42332;52.136;20.666;2023-03-01T05:52:51;28.90;;;13.25;;
56429;SDS011;42332;52.136;20.666;2023-03-01T05:55:18;16.58;;;8.80;;
56429;SDS011;42332;52.136;20.666;2023-03-01T05:57:44;36.03;;;14.57;;
56429;SDS011;42332;52.136;20.666;2023-03-01T06:00:11;30.58;;;11.60;;
56429;SDS011;42332;52.136;20.666;2023-03-01T06:02:37;40.67;;;16.42;;
56429;SDS011;42332;52.136;20.666;2023-03-01T06:05:04;33.50;;;15.00;;
56429;SDS011;42332;52.136;20.666;2023-03-01T06:07:30;41.10;;;16.20;;
56429;SDS011;42332;52.136;20.666;2023-03-01T06:09:56;31.90;;;15.10;;
56429;SDS011;42332;52.136;20.666;2023-03-01T06:12:21;32.70;;;13.98;;
56429;SDS011;42332;52.136;20.666;2023-03-01T06:14:47;28.60;;;13.73;;
56429;SDS011;42332;52.136;20.666;2023-03-01T06:17:12;28.40;;;12.52;;
56429;SDS011;42332;52.136;20.666;2023-03-01T06:19:38;31.73;;;11.90;;
56429;SDS011;42332;52.136;20.666;2023-03-01T06:22:04;44.97;;;17.40;;
56429;SDS011;42332;52.136;20.666;2023-03-01T06:24:29;31.02;;;13.88;;
56429;SDS011;42332;52.136;20.666;2023-03-01T06:26:54;22.63;;;11.05;;
56429;SDS011;42332;52.136;20.666;2023-03-01T06:29:20;34.33;;;14.68;;
56429;SDS011;42332;52.136;20.666;2023-03-01T06:31:47;24.00;;;10.45;;
56429;SDS011;42332;52.136;20.666;2023-03-01T06:34:12;26.33;;;11.82;;
56429;SDS011;42332;52.136;20.666;2023-03-01T06:36:38;23.05;;;9.85;;
56429;SDS011;42332;52.136;20.666;2023-03-01T06:39:04;19.20;;;8.85;;
56429;SDS011;42332;52.136;20.666;2023-03-01T06:41:30;34.75;;;11.50;;
56429;SDS011;42332;52.136;20.666;2023-03-01T06:43:56;21.20;;;9.68;;
56429;SDS011;42332;52.136;20.666;2023-03-01T06:46:21;38.28;;;15.02;;
56429;SDS011;42332;52.136;20.666;2023-03-01T06:48:47;46.47;;;14.23;;
56429;SDS011;42332;52.136;20.666;2023-03-01T06:51:12;38.33;;;15.38;;
56429;SDS011;42332;52.136;20.666;2023-03-01T06:53:37;45.85;;;13.00;;
56429;SDS011;42332;52.136;20.666;2023-03-01T06:56:03;53.33;;;16.23;;
56429;SDS011;42332;52.136;20.666;2023-03-01T06:58:28;29.95;;;12.45;;
56429;SDS011;42332;52.136;20.666;2023-03-01T07:00:54;44.22;;;17.15;;
56429;SDS011;42332;52.136;20.666;2023-03-01T07:03:19;34.90;;;15.57;;
56429;SDS011;42332;52.136;20.666;2023-03-01T07:05:45;26.52;;;12.98;;
56429;SDS011;42332;52.136;20.666;2023-03-01T07:08:10;41.15;;;15.70;;
56429;SDS011;42332;52.136;20.666;2023-03-01T07:10:35;44.05;;;17.27;;
56429;SDS011;42332;52.136;20.666;2023-03-01T07:13:01;43.15;;;16.48;;
56429;SDS011;42332;52.136;20.666;2023-03-01T07:15:27;22.45;;;11.52;;
56429;SDS011;42332;52.136;20.666;2023-03-01T07:17:52;44.92;;;16.30;;
56429;SDS011;42332;52.136;20.666;2023-03-01T07:20:18;15.57;;;8.52;;
56429;SDS011;42332;52.136;20.666;2023-03-01T07:22:49;27.85;;;13.00;;
56429;SDS011;42332;52.136;20.666;2023-03-01T07:25:14;36.78;;;14.50;;
56429;SDS011;42332;52.136;20.666;2023-03-01T07:27:40;34.72;;;13.80;;
56429;SDS011;42332;52.136;20.666;2023-03-01T07:30:05;36.47;;;16.75;;
56429;SDS011;42332;52.136;20.666;2023-03-01T07:32:31;35.55;;;17.58;;
56429;SDS011;42332;52.136;20.666;2023-03-01T07:34:57;37.60;;;14.85;;
56429;SDS011;42332;52.136;20.666;2023-03-01T07:37:22;22.83;;;11.50;;
56429;SDS011;42332;52.136;20.666;2023-03-01T07:39:47;51.38;;;16.92;;
56429;SDS011;42332;52.136;20.666;2023-03-01T07:42:13;31.52;;;14.35;;
56429;SDS011;42332;52.136;20.666;2023-03-01T07:44:38;47.90;;;17.58;;
56429;SDS011;42332;52.136;20.666;2023-03-01T07:47:04;40.50;;;17.75;;
56429;SDS011;42332;52.136;20.666;2023-03-01T07:49:29;35.70;;;16.35;;
56429;SDS011;42332;52.136;20.666;2023-03-01T07:51:55;31.38;;;15.00;;
56429;SDS011;42332;52.136;20.666;2023-03-01T07:54:21;29.73;;;14.38;;
56429;SDS011;42332;52.136;20.666;2023-03-01T07:56:46;15.93;;;9.18;;
56429;SDS011;42332;52.136;20.666;2023-03-01T07:59:11;34.42;;;13.98;;
56429;SDS011;42332;52.136;20.666;2023-03-01T08:01:37;25.58;;;10.38;;
56429;SDS011;42332;52.136;20.666;2023-03-01T08:04:02;51.38;;;15.38;;
56429;SDS011;42332;52.136;20.666;2023-03-01T08:06:29;39.85;;;15.95;;
56429;SDS011;42332;52.136;20.666;2023-03-01T08:08:55;26.67;;;11.27;;
56429;SDS011;42332;52.136;20.666;2023-03-01T08:11:20;39.15;;;15.82;;
56429;SDS011;42332;52.136;20.666;2023-03-01T08:13:47;36.13;;;16.67;;
56429;SDS011;42332;52.136;20.666;2023-03-01T08:16:13;43.53;;;15.63;;
56429;SDS011;42332;52.136;20.666;2023-03-01T08:18:39;60.60;;;15.38;;
56429;SDS011;42332;52.136;20.666;2023-03-01T08:21:08;60.30;;;18.13;;
56429;SDS011;42332;52.136;20.666;2023-03-01T08:23:35;37.95;;;13.35;;
56429;SDS011;42332;52.136;20.666;2023-03-01T08:26:19;25.98;;;11.77;;
56429;SDS011;42332;52.136;20.666;2023-03-01T08:28:45;20.10;;;9.43;;
56429;SDS011;42332;52.136;20.666;2023-03-01T08:31:18;24.63;;;10.73;;
56429;SDS011;42332;52.136;20.666;2023-03-01T08:33:46;34.88;;;12.88;;
56429;SDS011;42332;52.136;20.666;2023-03-01T08:36:15;41.25;;;13.75;;
56429;SDS011;42332;52.136;20.666;2023-03-01T08:38:41;46.50;;;17.35;;
56429;SDS011;42332;52.136;20.666;2023-03-01T08:41:07;34.28;;;14.27;;
56429;SDS011;42332;52.136;20.666;2023-03-01T08:43:32;39.25;;;15.05;;
56429;SDS011;42332;52.136;20.666;2023-03-01T08:45:57;32.42;;;12.90;;
56429;SDS011;42332;52.136;20.666;2023-03-01T08:48:23;45.38;;;16.10;;
56429;SDS011;42332;52.136;20.666;2023-03-01T08:50:49;44.67;;;17.25;;
56429;SDS011;42332;52.136;20.666;2023-03-01T08:53:14;35.20;;;14.55;;
56429;SDS011;42332;52.136;20.666;2023-03-01T08:55:40;34.70;;;14.82;;
56429;SDS011;42332;52.136;20.666;2023-03-01T08:58:05;26.27;;;12.02;;
56429;SDS011;42332;52.136;20.666;2023-03-01T09:00:31;43.22;;;14.82;;
56429;SDS011;42332;52.136;20.666;2023-03-01T09:02:59;21.85;;;10.02;;
56429;SDS011;42332;52.136;20.666;2023-03-01T09:05:24;40.85;;;15.63;;
56429;SDS011;42332;52.136;20.666;2023-03-01T09:07:50;71.13;;;14.05;;
56429;SDS011;42332;52.136;20.666;2023-03-01T09:10:15;40.85;;;14.57;;
56429;SDS011;42332;52.136;20.666;2023-03-01T09:12:41;34.05;;;12.93;;
56429;SDS011;42332;52.136;20.666;2023-03-01T09:15:06;40.58;;;15.23;;
56429;SDS011;42332;52.136;20.666;2023-03-01T09:17:32;37.78;;;14.45;;
56429;SDS011;42332;52.136;20.666;2023-03-01T09:19:57;28.50;;;11.98;;
56429;SDS011;42332;52.136;20.666;2023-03-01T09:22:24;18.67;;;7.22;;
56429;SDS011;42332;52.136;20.666;2023-03-01T09:24:50;36.92;;;13.50;;
56429;SDS011;42332;52.136;20.666;2023-03-01T09:27:15;22.58;;;11.07;;
56429;SDS011;42332;52.136;20.666;2023-03-01T09:29:43;25.95;;;10.75;;
56429;SDS011;42332;52.136;20.666;2023-03-01T09:32:09;20.25;;;11.00;;
56429;SDS011;42332;52.136;20.666;2023-03-01T09:34:34;34.72;;;14.35;;
56429;SDS011;42332;52.136;20.666;2023-03-01T09:37:20;28.67;;;13.80;;
56429;SDS011;42332;52.136;20.666;2023-03-01T09:39:45;34.75;;;14.57;;
56429;SDS011;42332;52.136;20.666;2023-03-01T09:42:11;31.27;;;10.60;;
56429;SDS011;42332;52.136;20.666;2023-03-01T09:47:20;19.73;;;10.50;;
56429;SDS011;42332;52.136;20.666;2023-03-01T09:49:50;31.42;;;11.80;;
56429;SDS011;42332;52.136;20.666;2023-03-01T09:53:14;38.33;;;14.52;;
56429;SDS011;42332;52.136;20.666;2023-03-01T09:55:29;35.90;;;14.05;;
56429;SDS011;42332;52.136;20.666;2023-03-01T09:58:04;35.47;;;11.95;;
56429;SDS011;42332;52.136;20.666;2023-03-01T10:00:48;33.55;;;12.88;;
56429;SDS011;42332;52.136;20.666;2023-03-01T10:03:21;30.00;;;12.65;;
56429;SDS011;42332;52.136;20.666;2023-03-01T10:08:31;26.73;;;10.82;;
56429;SDS011;42332;52.136;20.666;2023-03-01T10:11:01;35.40;;;14.57;;
56429;SDS011;42332;52.136;20.666;2023-03-01T10:16:03;25.13;;;10.73;;
56429;SDS011;42332;52.136;20.666;2023-03-01T10:18:35;29.10;;;12.15;;
56429;SDS011;42332;52.136;20.666;2023-03-01T10:21:07;30.77;;;11.95;;
56429;SDS011;42332;52.136;20.666;2023-03-01T10:23:38;21.80;;;10.23;;
56429;SDS011;42332;52.136;20.666;2023-03-01T10:26:07;25.58;;;10.57;;
56429;SDS011;42332;52.136;20.666;2023-03-01T10:29:01;35.22;;;12.32;;
56429;SDS011;42332;52.136;20.666;2023-03-01T10:31:46;27.92;;;9.68;;
56429;SDS011;42332;52.136;20.666;2023-03-01T10:34:17;22.45;;;9.40;;
56429;SDS011;42332;52.136;20.666;2023-03-01T10:36:55;22.80;;;8.60;;
56429;SDS011;42332;52.136;20.666;2023-03-01T10:39:23;23.23;;;9.98;;
56429;SDS011;42332;52.136;20.666;2023-03-01T10:42:09;25.67;;;10.50;;
56429;SDS011;42332;52.136;20.666;2023-03-01T10:44:45;22.83;;;9.23;;
56429;SDS011;42332;52.136;20.666;2023-03-01T10:47:22;22.65;;;9.77;;
56429;SDS011;42332;52.136;20.666;2023-03-01T10:52:18;30.45;;;11.23;;
56429;SDS011;42332;52.136;20.666;2023-03-01T10:54:55;30.00;;;13.43;;
56429;SDS011;42332;52.136;20.666;2023-03-01T10:57:39;21.65;;;6.03;;
56429;SDS011;42332;52.136;20.666;2023-03-01T11:02:46;18.85;;;8.45;;
56429;SDS011;42332;52.136;20.666;2023-03-01T11:05:33;9.80;;;4.65;;
56429;SDS011;42332;52.136;20.666;2023-03-01T11:07:59;22.42;;;10.20;;
56429;SDS011;42332;52.136;20.666;2023-03-01T11:10:31;25.33;;;8.70;;
56429;SDS011;42332;52.136;20.666;2023-03-01T11:15:40;32.05;;;10.38;;
56429;SDS011;42332;52.136;20.666;2023-03-01T11:18:05;26.35;;;9.00;;
56429;SDS011;42332;52.136;20.666;2023-03-01T11:20:43;40.67;;;10.90;;
56429;SDS011;42332;52.136;20.666;2023-03-01T11:23:10;20.25;;;9.30;;
56429;SDS011;42332;52.136;20.666;2023-03-01T11:25:40;28.17;;;11.35;;
56429;SDS011;42332;52.136;20.666;2023-03-01T11:28:09;22.02;;;6.13;;
56429;SDS011;42332;52.136;20.666;2023-03-01T11:39:26;32.85;;;9.30;;
56429;SDS011;42332;52.136;20.666;2023-03-01T11:41:59;29.63;;;8.35;;
56429;SDS011;42332;52.136;20.666;2023-03-01T11:44:29;18.95;;;8.55;;
56429;SDS011;42332;52.136;20.666;2023-03-01T11:52:33;21.27;;;9.77;;
56429;SDS011;42332;52.136;20.666;2023-03-01T11:58:34;25.05;;;8.88;;
56429;SDS011;42332;52.136;20.666;2023-03-01T12:06:39;19.77;;;8.82;;
56429;SDS011;42332;52.136;20.666;2023-03-01T12:09:15;23.15;;;9.57;;
56429;SDS011;42332;52.136;20.666;2023-03-01T12:14:36;25.25;;;9.70;;
56429;SDS011;42332;52.136;20.666;2023-03-01T12:20:02;24.45;;;9.57;;
56429;SDS011;42332;52.136;20.666;2023-03-01T12:22:39;30.83;;;9.80;;
56429;SDS011;42332;52.136;20.666;2023-03-01T12:25:27;29.17;;;11.95;;
56429;SDS011;42332;52.136;20.666;2023-03-01T12:33:22;32.65;;;12.20;;
56429;SDS011;42332;52.136;20.666;2023-03-01T12:38:42;29.55;;;12.68;;
56429;SDS011;42332;52.136;20.666;2023-03-01T12:41:22;23.20;;;9.55;;
56429;SDS011;42332;52.136;20.666;2023-03-01T12:47:04;35.30;;;13.40;;
56429;SDS011;42332;52.136;20.666;2023-03-01T12:49:36;17.42;;;7.07;;
56429;SDS011;42332;52.136;20.666;2023-03-01T12:55:20;27.33;;;10.73;;
56429;SDS011;42332;52.136;20.666;2023-03-01T12:57:56;31.70;;;11.98;;
56429;SDS011;42332;52.136;20.666;2023-03-01T13:00:28;24.48;;;9.52;;
56429;SDS011;42332;52.136;20.666;2023-03-01T13:08:20;24.80;;;10.32;;
56429;SDS011;42332;52.136;20.666;2023-03-01T13:10:54;30.02;;;11.75;;
56429;SDS011;42332;52.136;20.666;2023-03-01T13:13:24;34.60;;;12.73;;
56429;SDS011;42332;52.136;20.666;2023-03-01T13:15:51;33.28;;;11.85;;
56429;SDS011;42332;52.136;20.666;2023-03-01T13:20:50;28.70;;;10.73;;
56429;SDS011;42332;52.136;20.666;2023-03-01T13:26:02;22.40;;;8.95;;
56429;SDS011;42332;52.136;20.666;2023-03-01T13:30:59;24.95;;;9.85;;
56429;SDS011;42332;52.136;20.666;2023-03-01T13:35:51;35.80;;;12.98;;
56429;SDS011;42332;52.136;20.666;2023-03-01T13:41:15;27.40;;;10.10;;
56429;SDS011;42332;52.136;20.666;2023-03-01T13:43:42;29.95;;;10.40;;
56429;SDS011;42332;52.136;20.666;2023-03-01T13:46:15;28.75;;;11.25;;
56429;SDS011;42332;52.136;20.666;2023-03-01T13:48:48;26.17;;;10.75;;
56429;SDS011;42332;52.136;20.666;2023-03-01T13:51:15;27.63;;;10.38;;
56429;SDS011;42332;52.136;20.666;2023-03-01T13:53:49;22.92;;;10.60;;
56429;SDS011;42332;52.136;20.666;2023-03-01T13:56:19;25.38;;;9.52;;
56429;SDS011;42332;52.136;20.666;2023-03-01T13:59:05;23.90;;;8.70;;
56429;SDS011;42332;52.136;20.666;2023-03-01T14:01:38;24.17;;;9.10;;
56429;SDS011;42332;52.136;20.666;2023-03-01T14:04:17;22.77;;;9.60;;
56429;SDS011;42332;52.136;20.666;2023-03-01T14:06:46;33.72;;;11.27;;
56429;SDS011;42332;52.136;20.666;2023-03-01T14:16:58;26.52;;;7.55;;
56429;SDS011;42332;52.136;20.666;2023-03-01T14:19:29;27.00;;;9.82;;
56429;SDS011;42332;52.136;20.666;2023-03-01T14:21:58;29.58;;;10.05;;
56429;SDS011;42332;52.136;20.666;2023-03-01T14:24:52;24.52;;;9.05;;
56429;SDS011;42332;52.136;20.666;2023-03-01T14:27:20;26.23;;;9.75;;
56429;SDS011;42332;52.136;20.666;2023-03-01T14:30:31;25.80;;;10.02;;
56429;SDS011;42332;52.136;20.666;2023-03-01T14:32:57;17.83;;;7.60;;
56429;SDS011;42332;52.136;20.666;2023-03-01T14:35:28;25.48;;;8.95;;
56429;SDS011;42332;52.136;20.666;2023-03-01T14:37:56;35.60;;;10.88;;
56429;SDS011;42332;52.136;20.666;2023-03-01T14:40:40;34.88;;;11.00;;
56429;SDS011;42332;52.136;20.666;2023-03-01T14:43:09;29.95;;;10.55;;
56429;SDS011;42332;52.136;20.666;2023-03-01T14:45:36;13.20;;;5.35;;
56429;SDS011;42332;52.136;20.666;2023-03-01T14:48:02;28.83;;;8.55;;
56429;SDS011;42332;52.136;20.666;2023-03-01T14:50:30;22.98;;;7.63;;
56429;SDS011;42332;52.136;20.666;2023-03-01T14:52:57;19.67;;;9.93;;
56429;SDS011;42332;52.136;20.666;2023-03-01T14:55:32;20.98;;;8.00;;
56429;SDS011;42332;52.136;20.666;2023-03-01T14:58:02;19.27;;;7.45;;
56429;SDS011;42332;52.136;20.666;2023-03-01T15:00:31;24.83;;;8.70;;
56429;SDS011;42332;52.136;20.666;2023-03-01T15:03:07;22.27;;;8.48;;
56429;SDS011;42332;52.136;20.666;2023-03-01T15:05:38;18.73;;;8.05;;
56429;SDS011;42332;52.136;20.666;2023-03-01T15:08:04;17.10;;;7.97;;
56429;SDS011;42332;52.136;20.666;2023-03-01T15:10:30;23.55;;;8.13;;
56429;SDS011;42332;52.136;20.666;2023-03-01T15:13:11;17.80;;;7.55;;
56429;SDS011;42332;52.136;20.666;2023-03-01T15:15:41;20.77;;;8.55;;
56429;SDS011;42332;52.136;20.666;2023-03-01T15:18:15;17.25;;;6.63;;
56429;SDS011;42332;52.136;20.666;2023-03-01T15:20:45;18.90;;;7.60;;
56429;SDS011;42332;52.136;20.666;2023-03-01T15:23:17;20.13;;;7.57;;
56429;SDS011;42332;52.136;20.666;2023-03-01T15:25:51;24.27;;;7.90;;
56429;SDS011;42332;52.136;20.666;2023-03-01T15:28:21;22.95;;;6.03;;
56429;SDS011;42332;52.136;20.666;2023-03-01T15:30:52;22.50;;;7.18;;
56429;SDS011;42332;52.136;20.666;2023-03-01T15:33:39;27.23;;;9.00;;
56429;SDS011;42332;52.136;20.666;2023-03-01T15:39:05;23.50;;;5.60;;
56429;SDS011;42332;52.136;20.666;2023-03-01T15:41:38;24.52;;;8.95;;
56429;SDS011;42332;52.136;20.666;2023-03-01T15:44:16;24.80;;;9.32;;
56429;SDS011;42332;52.136;20.666;2023-03-01T15:46:45;18.48;;;7.28;;
56429;SDS011;42332;52.136;20.666;2023-03-01T15:51:59;23.02;;;10.02;;
56429;SDS011;42332;52.136;20.666;2023-03-01T15:54:25;25.00;;;9.57;;
56429;SDS011;42332;52.136;20.666;2023-03-01T15:56:51;26.55;;;9.30;;
56429;SDS011;42332;52.136;20.666;2023-03-01T15:59:16;27.35;;;9.80;;
56429;SDS011;42332;52.136;20.666;2023-03-01T16:01:42;26.23;;;9.02;;
56429;SDS011;42332;52.136;20.666;2023-03-01T16:04:11;24.88;;;8.68;;
56429;SDS011;42332;52.136;20.666;2023-03-01T16:06:45;26.65;;;8.38;;
56429;SDS011;42332;52.136;20.666;2023-03-01T16:09:11;24.00;;;10.50;;